createdAt,value
2022-08-17T00:02:24.135Z,6.20
2022-08-17T00:04:52.614Z,6.27
2022-08-17T00:07:19.464Z,6.72
2022-08-17T00:09:46.265Z,7.15
2022-08-17T00:12:42.721Z,6.70
2022-08-17T00:15:00.128Z,6.70
2022-08-17T00:17:27.168Z,6.30
2022-08-17T00:19:53.938Z,6.93
2022-08-17T00:22:33.653Z,6.57
2022-08-17T00:25:04.237Z,6.35
2022-08-17T00:27:31.095Z,6.65
2022-08-17T00:29:57.867Z,6.83
2022-08-17T00:33:22.741Z,6.60
2022-08-17T00:35:15.532Z,7.13
2022-08-17T00:37:42.591Z,6.80
2022-08-17T00:40:13.586Z,6.47
2022-08-17T00:42:41.190Z,6.07
2022-08-17T00:45:11.234Z,6.50
2022-08-17T00:47:38.268Z,6.70
2022-08-17T00:50:07.084Z,6.40
2022-08-17T00:52:39.391Z,5.68
2022-08-17T00:55:07.922Z,6.80
2022-08-17T00:57:42.808Z,6.20
2022-08-17T01:00:16.926Z,6.82
2022-08-17T01:02:46.663Z,8.00
2022-08-17T01:05:24.063Z,7.45
2022-08-17T01:07:53.994Z,8.03
2022-08-17T01:10:58.658Z,7.38
2022-08-17T01:13:19.191Z,7.22
2022-08-17T01:15:59.320Z,7.00
2022-08-17T01:18:26.975Z,6.50
2022-08-17T01:20:56.998Z,7.23
2022-08-17T01:23:26.334Z,7.35
2022-08-17T01:25:57.397Z,6.40
2022-08-17T01:28:52.461Z,6.85
2022-08-17T01:31:15.053Z,6.72
2022-08-17T01:33:42.084Z,7.67
2022-08-17T01:36:09.634Z,7.95
2022-08-17T01:38:41.219Z,7.95
2022-08-17T01:41:15.728Z,9.05
2022-08-17T01:43:51.086Z,9.48
2022-08-17T01:46:24.357Z,8.50
2022-08-17T01:48:51.220Z,8.98
2022-08-17T01:51:18.887Z,9.07
2022-08-17T01:53:52.787Z,8.82
2022-08-17T01:56:23.440Z,8.73
2022-08-17T01:58:50.990Z,8.93
2022-08-17T02:01:20.759Z,8.75
2022-08-17T02:03:53.455Z,9.07
2022-08-17T02:06:27.510Z,8.40
2022-08-17T02:09:02.824Z,8.57
2022-08-17T02:11:35.182Z,9.43
2022-08-17T02:14:03.016Z,8.85
2022-08-17T02:16:37.299Z,9.07
2022-08-17T02:19:07.619Z,9.20
2022-08-17T02:21:35.331Z,9.65
2022-08-17T02:24:03.348Z,9.57
2022-08-17T02:26:30.586Z,9.13
2022-08-17T02:28:57.488Z,9.20
2022-08-17T02:31:24.325Z,9.85
2022-08-17T02:34:01.265Z,9.75
2022-08-17T02:36:34.248Z,9.80
2022-08-17T02:39:11.507Z,10.00
2022-08-17T02:41:39.597Z,10.55
2022-08-17T02:44:07.560Z,9.18
2022-08-17T02:46:34.790Z,8.27
2022-08-17T02:49:01.661Z,10.00
2022-08-17T02:51:28.511Z,10.00
2022-08-17T02:54:03.909Z,9.60
2022-08-17T02:56:43.077Z,10.00
2022-08-17T02:59:10.263Z,10.38
2022-08-17T03:01:37.159Z,8.00
2022-08-17T03:04:04.209Z,9.80
2022-08-17T03:06:31.161Z,9.30
2022-08-17T03:08:58.028Z,9.50
2022-08-17T03:11:24.926Z,10.20
2022-08-17T03:13:51.753Z,9.30
2022-08-17T03:16:18.567Z,8.55
2022-08-17T03:18:45.374Z,9.65
2022-08-17T03:21:12.252Z,10.05
2022-08-17T03:23:39.050Z,9.43
2022-08-17T03:26:06.016Z,9.67
2022-08-17T03:28:39.191Z,10.07
2022-08-17T03:31:06.962Z,9.95
2022-08-17T03:33:33.995Z,9.88
2022-08-17T03:36:00.891Z,10.25
2022-08-17T03:38:27.953Z,10.20
2022-08-17T03:40:59.102Z,9.60
2022-08-17T03:43:29.203Z,9.63
2022-08-17T03:45:56.455Z,9.77
2022-08-17T03:48:24.163Z,10.00
2022-08-17T03:50:51.568Z,8.20
2022-08-17T03:53:18.335Z,10.30
2022-08-17T03:55:45.147Z,9.32
2022-08-17T03:58:12.103Z,9.70
2022-08-17T04:00:39.686Z,9.48
2022-08-17T04:03:06.717Z,9.67
2022-08-17T04:05:36.015Z,9.10
2022-08-17T04:08:03.008Z,9.63
2022-08-17T04:10:33.876Z,10.60
2022-08-17T04:13:05.779Z,11.70
2022-08-17T04:15:32.589Z,10.70
2022-08-17T04:18:00.117Z,10.02
2022-08-17T04:20:27.074Z,9.27
2022-08-17T04:22:56.804Z,9.40
2022-08-17T04:25:24.124Z,10.57
2022-08-17T04:27:51.959Z,11.00
2022-08-17T04:30:18.935Z,10.88
2022-08-17T04:33:05.366Z,11.00
2022-08-17T04:35:41.107Z,11.40
2022-08-17T04:38:09.817Z,9.77
2022-08-17T04:40:36.731Z,11.00
2022-08-17T04:43:06.794Z,11.23
2022-08-17T04:45:34.713Z,9.82
2022-08-17T04:48:01.689Z,10.20
2022-08-17T04:50:28.600Z,10.40
2022-08-17T04:52:55.589Z,10.37
2022-08-17T04:55:22.656Z,10.27
2022-08-17T04:57:49.597Z,9.85
2022-08-17T05:00:16.556Z,11.02
2022-08-17T05:02:50.685Z,9.60
2022-08-17T05:05:19.947Z,8.90
2022-08-17T05:07:48.038Z,9.20
2022-08-17T05:10:14.801Z,8.50
2022-08-17T05:12:41.669Z,7.18
2022-08-17T05:15:12.780Z,6.53
2022-08-17T05:17:39.561Z,6.40
2022-08-17T05:20:06.985Z,6.50
2022-08-17T05:22:33.995Z,6.38
2022-08-17T05:25:02.722Z,6.20
2022-08-17T05:27:35.056Z,6.15
2022-08-17T05:30:03.390Z,6.63
2022-08-17T05:32:38.921Z,6.10
2022-08-17T05:35:07.534Z,6.20
2022-08-17T05:37:34.390Z,6.25
2022-08-17T05:40:01.231Z,6.20
2022-08-17T05:42:28.232Z,6.50
2022-08-17T05:44:57.847Z,6.72
2022-08-17T05:47:26.269Z,6.53
2022-08-17T05:49:53.903Z,6.72
2022-08-17T05:52:41.855Z,6.40
2022-08-17T05:55:32.383Z,6.37
2022-08-17T05:58:21.138Z,6.82
2022-08-17T06:00:52.691Z,6.78
2022-08-17T06:03:19.479Z,7.07
2022-08-17T06:06:01.460Z,6.68
2022-08-17T06:08:51.432Z,7.40
2022-08-17T06:11:53.721Z,6.60
2022-08-17T06:14:48.227Z,7.18
2022-08-17T06:17:21.051Z,6.80
2022-08-17T06:19:49.503Z,7.47
2022-08-17T06:22:20.513Z,7.30
2022-08-17T06:24:54.147Z,6.95
2022-08-17T06:27:23.684Z,7.57
2022-08-17T06:30:04.079Z,6.68
2022-08-17T06:32:31.104Z,7.70
2022-08-17T06:35:00.313Z,6.97
2022-08-17T06:37:30.307Z,7.30
2022-08-17T06:40:15.186Z,7.55
2022-08-17T06:43:02.206Z,7.50
2022-08-17T06:45:42.008Z,6.85
2022-08-17T06:48:20.826Z,7.17
2022-08-17T06:50:53.140Z,6.88
2022-08-17T06:53:38.464Z,6.85
2022-08-17T06:56:10.101Z,7.07
2022-08-17T06:58:40.202Z,7.50
2022-08-17T07:01:17.396Z,6.80
2022-08-17T07:03:46.779Z,6.78
2022-08-17T07:06:15.888Z,6.40
2022-08-17T07:08:54.881Z,6.97
2022-08-17T07:11:32.157Z,7.38
2022-08-17T07:14:17.647Z,7.10
2022-08-17T07:16:47.462Z,7.55
2022-08-17T07:19:16.795Z,6.60
2022-08-17T07:21:57.796Z,6.80
2022-08-17T07:24:32.164Z,7.07
2022-08-17T07:27:08.837Z,6.63
2022-08-17T07:29:40.931Z,6.50
2022-08-17T07:32:10.766Z,7.10
2022-08-17T07:35:07.170Z,6.85
2022-08-17T07:37:42.985Z,6.93
2022-08-17T07:40:21.903Z,6.67
2022-08-17T07:43:21.969Z,6.53
2022-08-17T07:45:59.277Z,5.97
2022-08-17T07:48:27.145Z,5.95
2022-08-17T07:50:55.193Z,6.18
2022-08-17T07:53:24.349Z,5.37
2022-08-17T07:55:52.895Z,5.97
2022-08-17T07:58:24.034Z,5.75
2022-08-17T08:01:10.625Z,5.30
2022-08-17T08:03:43.255Z,5.80
2022-08-17T08:06:25.619Z,5.10
2022-08-17T08:08:55.798Z,6.00
2022-08-17T08:11:35.340Z,5.70
2022-08-17T08:14:28.633Z,5.85
2022-08-17T08:16:59.284Z,5.70
2022-08-17T08:19:27.137Z,6.00
2022-08-17T08:22:10.270Z,5.90
2022-08-17T08:24:55.323Z,6.10
2022-08-17T08:27:44.787Z,6.60
2022-08-17T08:30:20.753Z,6.25
2022-08-17T08:33:08.971Z,6.10
2022-08-17T08:36:59.298Z,5.85
2022-08-17T08:39:20.911Z,5.82
2022-08-17T08:42:29.029Z,6.10
2022-08-17T08:45:20.764Z,6.00
2022-08-17T08:48:45.949Z,5.90
2022-08-17T08:51:13.904Z,6.60
2022-08-17T08:54:06.549Z,6.50
2022-08-17T08:57:11.525Z,6.00
2022-08-17T08:59:44.236Z,6.10
2022-08-17T09:02:23.455Z,6.57
2022-08-17T09:05:14.300Z,6.50
2022-08-17T09:07:41.424Z,4.72
2022-08-17T09:10:14.368Z,5.30
2022-08-17T09:12:56.214Z,5.10
2022-08-17T09:15:22.929Z,4.93
2022-08-17T09:19:01.894Z,5.32
2022-08-17T09:20:53.461Z,5.60
2022-08-17T09:23:39.492Z,5.40
2022-08-17T09:26:16.256Z,6.60
2022-08-17T09:28:49.784Z,6.03
2022-08-17T09:31:21.812Z,6.60
2022-08-17T09:33:49.752Z,5.75
2022-08-17T09:36:23.370Z,5.63
2022-08-17T09:39:00.557Z,6.25
2022-08-17T09:41:54.247Z,6.90
2022-08-17T09:44:29.773Z,5.88
2022-08-17T09:47:08.440Z,5.65
2022-08-17T09:49:40.762Z,5.97
2022-08-17T09:52:17.840Z,6.10
2022-08-17T09:54:45.667Z,6.43
2022-08-17T09:57:46.909Z,6.70
2022-08-17T10:00:20.686Z,5.82
2022-08-17T10:03:15.425Z,4.18
2022-08-17T10:06:26.907Z,4.07
2022-08-17T10:09:02.735Z,3.80
2022-08-17T10:11:45.532Z,3.85
2022-08-17T10:14:37.824Z,4.22
2022-08-17T10:17:24.312Z,4.00
2022-08-17T10:20:12.728Z,4.40
2022-08-17T10:22:51.188Z,3.83
2022-08-17T10:25:23.597Z,4.10
2022-08-17T10:28:00.223Z,3.60
2022-08-17T10:30:31.807Z,3.40
2022-08-17T10:33:06.904Z,3.95
2022-08-17T10:36:00.866Z,3.50
2022-08-17T10:38:45.754Z,3.50
2022-08-17T10:41:48.437Z,3.78
2022-08-17T10:44:41.295Z,3.88
2022-08-17T10:47:14.956Z,3.85
2022-08-17T10:49:46.402Z,3.57
2022-08-17T10:52:28.443Z,3.50
2022-08-17T10:54:58.223Z,4.22
2022-08-17T10:57:31.479Z,3.90
2022-08-17T10:59:59.926Z,3.60
2022-08-17T11:02:32.060Z,3.53
2022-08-17T11:05:17.379Z,3.90
2022-08-17T11:07:44.192Z,3.80
2022-08-17T11:10:29.171Z,3.70
2022-08-17T11:13:17.010Z,4.13
2022-08-17T11:15:46.799Z,3.93
2022-08-17T11:18:25.769Z,4.13
2022-08-17T11:21:10.418Z,3.63
2022-08-17T11:24:02.926Z,3.80
2022-08-17T11:26:36.954Z,3.95
2022-08-17T11:29:19.182Z,3.50
2022-08-17T11:32:05.555Z,3.72
2022-08-17T11:34:33.513Z,3.42
2022-08-17T11:37:15.480Z,3.50
2022-08-17T11:40:09.762Z,3.45
2022-08-17T11:43:14.393Z,3.10
2022-08-17T11:46:17.889Z,3.80
2022-08-17T11:48:54.608Z,2.90
2022-08-17T11:51:24.161Z,3.80
2022-08-17T11:53:59.810Z,3.03
2022-08-17T11:56:39.449Z,3.10
2022-08-17T11:59:32.073Z,3.22
2022-08-17T12:02:02.123Z,3.00
2022-08-17T12:04:32.467Z,3.03
2022-08-17T12:07:20.719Z,3.70
2022-08-17T12:09:51.290Z,3.30
2022-08-17T12:12:23.099Z,3.10
2022-08-17T12:15:11.178Z,3.25
2022-08-17T12:17:41.184Z,3.20
2022-08-17T12:20:47.520Z,3.10
2022-08-17T12:23:36.505Z,3.33
2022-08-17T12:26:18.801Z,3.53
2022-08-17T12:28:48.980Z,3.60
2022-08-17T12:31:49.751Z,3.60
2022-08-17T12:34:29.221Z,3.95
2022-08-17T12:37:01.554Z,7.37
2022-08-17T12:39:30.257Z,6.80
2022-08-17T12:42:02.819Z,9.00
2022-08-17T12:44:37.081Z,16.65
2022-08-17T12:47:22.339Z,12.45
2022-08-17T12:49:54.985Z,39.40
2022-08-17T12:52:28.133Z,17.00
2022-08-17T12:54:59.623Z,5.97
2022-08-17T12:57:31.976Z,7.63
2022-08-17T13:00:08.994Z,23.08
2022-08-17T13:02:44.484Z,13.57
2022-08-17T13:05:23.692Z,9.40
2022-08-17T13:07:51.740Z,4.30
2022-08-17T13:10:33.072Z,4.32
2022-08-17T13:13:01.828Z,4.10
2022-08-17T13:15:44.465Z,3.83
2022-08-17T13:18:50.143Z,4.50
2022-08-17T13:21:19.889Z,4.00
2022-08-17T13:24:04.020Z,20.77
2022-08-17T13:26:53.422Z,23.10
2022-08-17T13:29:51.364Z,19.07
2022-08-17T13:32:38.272Z,5.45
2022-08-17T13:35:39.362Z,3.45
2022-08-17T13:38:33.429Z,3.28
2022-08-17T13:41:00.236Z,3.40
2022-08-17T13:43:45.403Z,3.50
2022-08-17T13:46:29.831Z,2.88
2022-08-17T13:49:06.092Z,3.50
2022-08-17T13:51:36.263Z,4.50
2022-08-17T13:54:05.633Z,5.70
2022-08-17T13:56:51.231Z,10.93
2022-08-17T13:59:53.442Z,5.10
2022-08-17T14:02:21.000Z,3.90
2022-08-17T14:04:48.471Z,3.60
2022-08-17T14:07:15.246Z,3.88
2022-08-17T14:09:51.985Z,3.63
2022-08-17T14:12:22.786Z,3.05
2022-08-17T14:14:49.594Z,3.05
2022-08-17T14:17:16.669Z,3.10
2022-08-17T14:19:43.589Z,3.17
2022-08-17T14:22:24.303Z,3.17
2022-08-17T14:24:51.135Z,3.10
2022-08-17T14:27:19.640Z,3.38
2022-08-17T14:29:47.463Z,3.38
2022-08-17T14:32:19.949Z,3.30
2022-08-17T14:34:47.827Z,3.00
2022-08-17T14:37:14.872Z,3.53
2022-08-17T14:39:41.834Z,3.47
2022-08-17T14:42:08.978Z,3.28
2022-08-17T14:44:35.930Z,3.60
2022-08-17T14:47:02.765Z,3.30
2022-08-17T14:49:29.644Z,3.25
2022-08-17T14:51:56.529Z,3.20
2022-08-17T14:54:32.777Z,3.40
2022-08-17T14:57:23.398Z,3.58
2022-08-17T14:59:53.195Z,3.87
2022-08-17T15:02:29.276Z,3.90
2022-08-17T15:05:05.438Z,3.78
2022-08-17T15:07:32.420Z,4.30
2022-08-17T15:10:01.412Z,4.10
2022-08-17T15:12:32.694Z,4.27
2022-08-17T15:15:00.881Z,4.60
2022-08-17T15:17:43.908Z,4.80
2022-08-17T15:20:23.043Z,4.43
2022-08-17T15:22:50.733Z,4.53
2022-08-17T15:25:19.071Z,4.80
2022-08-17T15:27:46.321Z,4.65
2022-08-17T15:30:14.010Z,4.90
2022-08-17T15:32:45.872Z,4.53
2022-08-17T15:35:26.817Z,4.50
2022-08-17T15:38:11.223Z,4.17
2022-08-17T15:40:42.873Z,5.20
2022-08-17T15:43:12.996Z,5.10
2022-08-17T15:45:40.237Z,4.60
2022-08-17T15:48:07.806Z,4.97
2022-08-17T15:50:34.848Z,4.97
2022-08-17T15:53:03.152Z,5.20
2022-08-17T15:55:31.778Z,4.93
2022-08-17T15:57:59.144Z,5.30
2022-08-17T16:00:26.208Z,5.50
2022-08-17T16:03:45.756Z,5.27
2022-08-17T16:05:40.774Z,5.50
2022-08-17T16:08:08.063Z,5.32
2022-08-17T16:10:36.170Z,5.55
2022-08-17T16:13:04.488Z,5.50
2022-08-17T16:15:32.309Z,5.53
2022-08-17T16:17:59.680Z,5.50
2022-08-17T16:20:27.094Z,5.10
2022-08-17T16:22:54.966Z,5.32
2022-08-17T16:25:51.913Z,5.28
2022-08-17T16:28:13.971Z,5.70
2022-08-17T16:30:41.284Z,6.05
2022-08-17T16:33:10.182Z,5.72
2022-08-17T16:35:37.277Z,5.63
2022-08-17T16:38:04.166Z,5.40
2022-08-17T16:40:35.966Z,5.20
2022-08-17T16:43:04.628Z,5.10
2022-08-17T16:45:31.786Z,5.05
2022-08-17T16:47:58.616Z,5.10
2022-08-17T16:50:25.629Z,5.70
2022-08-17T16:52:52.751Z,5.90
2022-08-17T16:55:22.222Z,5.90
2022-08-17T16:57:52.216Z,5.30
2022-08-17T17:00:19.057Z,5.88
2022-08-17T17:02:47.987Z,5.30
2022-08-17T17:05:39.513Z,5.00
2022-08-17T17:08:06.546Z,5.10
2022-08-17T17:10:40.263Z,5.50
2022-08-17T17:13:19.264Z,5.88
2022-08-17T17:16:00.319Z,5.30
2022-08-17T17:18:39.398Z,4.80
2022-08-17T17:21:12.881Z,5.28
2022-08-17T17:23:47.562Z,5.65
2022-08-17T17:26:17.219Z,5.22
2022-08-17T17:29:22.999Z,5.10
2022-08-17T17:32:45.094Z,5.23
2022-08-17T17:35:20.765Z,5.50
2022-08-17T17:37:48.437Z,5.30
2022-08-17T17:40:33.284Z,5.22
2022-08-17T17:43:20.374Z,4.40
2022-08-17T17:45:53.874Z,4.63
2022-08-17T17:48:20.730Z,5.05
2022-08-17T17:52:02.846Z,5.00
2022-08-17T17:54:29.874Z,4.78
2022-08-17T17:57:18.542Z,4.97
2022-08-17T17:59:46.025Z,5.30
2022-08-17T18:02:32.435Z,5.10
2022-08-17T18:05:08.781Z,5.15
2022-08-17T18:07:44.601Z,4.90
2022-08-17T18:10:34.580Z,4.60
2022-08-17T18:13:04.206Z,4.80
2022-08-17T18:15:40.482Z,4.95
2022-08-17T18:18:16.546Z,5.28
2022-08-17T18:20:53.223Z,5.45
2022-08-17T18:23:27.662Z,5.38
2022-08-17T18:25:56.013Z,5.10
2022-08-17T18:28:22.801Z,5.03
2022-08-17T18:31:21.551Z,4.90
2022-08-17T18:34:35.827Z,4.80
2022-08-17T18:36:59.566Z,4.72
2022-08-17T18:39:28.610Z,5.20
2022-08-17T18:41:57.687Z,5.57
2022-08-17T18:44:28.751Z,5.20
2022-08-17T18:47:19.189Z,5.35
2022-08-17T18:49:49.877Z,5.18
2022-08-17T18:52:21.567Z,4.67
2022-08-17T18:55:06.737Z,4.95
2022-08-17T18:57:36.778Z,5.32
2022-08-17T19:00:13.633Z,5.15
2022-08-17T19:03:01.097Z,4.80
2022-08-17T19:05:34.525Z,4.80
2022-08-17T19:08:21.614Z,4.95
2022-08-17T19:10:52.816Z,4.80
2022-08-17T19:13:35.587Z,5.90
2022-08-17T19:16:13.908Z,5.35
2022-08-17T19:19:09.620Z,4.83
2022-08-17T19:21:42.346Z,5.22
2022-08-17T19:24:11.868Z,5.53
2022-08-17T19:26:56.765Z,5.00
2022-08-17T19:29:55.936Z,5.65
2022-08-17T19:32:29.199Z,5.07
2022-08-17T19:34:56.909Z,5.40
2022-08-17T19:37:42.492Z,5.30
2022-08-17T19:40:52.281Z,5.20
2022-08-17T19:43:36.545Z,4.43
2022-08-17T19:46:19.635Z,5.10
2022-08-17T19:48:46.582Z,6.00
2022-08-17T19:51:26.591Z,4.82
2022-08-17T19:54:13.533Z,5.50
2022-08-17T19:57:01.678Z,5.35
2022-08-17T19:59:47.410Z,4.63
2022-08-17T20:02:25.195Z,4.60
2022-08-17T20:04:57.000Z,5.47
2022-08-17T20:07:37.188Z,5.38
2022-08-17T20:10:10.264Z,5.93
2022-08-17T20:12:39.614Z,5.80
2022-08-17T20:15:17.173Z,5.00
2022-08-17T20:17:47.228Z,5.75
2022-08-17T20:20:29.858Z,5.10
2022-08-17T20:23:11.827Z,5.55
2022-08-17T20:25:44.706Z,5.60
2022-08-17T20:28:27.286Z,5.57
2022-08-17T20:30:55.855Z,5.60
2022-08-17T20:33:32.666Z,5.85
2022-08-17T20:36:02.282Z,5.50
2022-08-17T20:38:42.565Z,5.90
2022-08-17T20:41:22.280Z,5.55
2022-08-17T20:44:01.318Z,5.43
2022-08-17T20:46:37.399Z,5.75
2022-08-17T20:49:22.614Z,5.43
2022-08-17T20:52:01.193Z,5.57
2022-08-17T20:54:43.282Z,5.63
2022-08-17T20:57:32.961Z,5.93
2022-08-17T21:00:19.920Z,5.78
2022-08-17T21:02:51.746Z,6.00
2022-08-17T21:05:31.681Z,5.47
2022-08-17T21:08:10.828Z,5.57
2022-08-17T21:10:38.460Z,5.60
2022-08-17T21:13:11.235Z,5.70
2022-08-17T21:15:51.836Z,5.60
2022-08-17T21:18:39.842Z,5.37
2022-08-17T21:21:40.090Z,5.47
2022-08-17T21:24:25.693Z,4.70
2022-08-17T21:27:10.747Z,5.35
2022-08-17T21:29:53.697Z,5.47
2022-08-17T21:32:30.298Z,5.10
2022-08-17T21:35:07.006Z,5.03
2022-08-17T21:37:42.322Z,5.43
2022-08-17T21:40:15.076Z,5.18
2022-08-17T21:42:52.188Z,5.07
2022-08-17T21:45:24.911Z,5.50
2022-08-17T21:48:20.985Z,5.40
2022-08-17T21:51:15.281Z,5.28
2022-08-17T21:53:52.197Z,5.60
2022-08-17T21:56:33.137Z,5.43
2022-08-17T21:59:05.739Z,5.60
2022-08-17T22:01:39.485Z,5.47
2022-08-17T22:04:20.503Z,5.00
2022-08-17T22:06:57.335Z,5.18
2022-08-17T22:09:45.468Z,5.75
2022-08-17T22:12:18.303Z,5.37
2022-08-17T22:15:03.785Z,5.43
2022-08-17T22:17:42.955Z,5.35
2022-08-17T22:20:17.588Z,5.22
2022-08-17T22:22:50.000Z,5.20
2022-08-17T22:25:22.496Z,4.97
2022-08-17T22:27:52.605Z,4.68
2022-08-17T22:30:35.734Z,5.00
2022-08-17T22:33:37.825Z,5.10
2022-08-17T22:36:30.120Z,5.07
2022-08-17T22:39:10.071Z,4.60
2022-08-17T22:41:52.158Z,5.28
2022-08-17T22:44:35.286Z,5.10
2022-08-17T22:47:24.402Z,5.25
2022-08-17T22:50:02.006Z,4.90
2022-08-17T22:52:36.467Z,4.97
2022-08-17T22:55:14.297Z,4.57
2022-08-17T22:57:47.000Z,4.70
2022-08-17T23:00:31.834Z,5.10
2022-08-17T23:03:24.120Z,5.50
2022-08-17T23:06:11.370Z,4.83
2022-08-17T23:08:39.569Z,4.80
2022-08-17T23:11:06.664Z,5.00
2022-08-17T23:13:33.480Z,5.05
2022-08-17T23:16:00.624Z,5.15
2022-08-17T23:18:27.493Z,4.90
2022-08-17T23:20:54.533Z,5.60
2022-08-17T23:23:23.695Z,5.00
2022-08-17T23:25:50.813Z,5.07
2022-08-17T23:28:17.713Z,5.47
2022-08-17T23:30:45.636Z,5.17
2022-08-17T23:33:33.740Z,4.70
2022-08-17T23:36:01.531Z,5.32
2022-08-17T23:38:28.639Z,4.80
2022-08-17T23:40:56.477Z,5.07
2022-08-17T23:46:07.489Z,5.00
2022-08-17T23:48:36.728Z,4.88
2022-08-17T23:51:18.899Z,4.53
2022-08-17T23:53:50.171Z,4.80
2022-08-17T23:56:17.654Z,5.00
2022-08-17T23:58:44.730Z,4.45
